sensor_id;sensor_type;location;lat;lon;timestamp;temperature;humidity
50738;DHT22;36703;48.154;17.126;2022-12-05T00:03:16;9.60;64.00
50738;DHT22;36703;48.154;17.126;2022-12-05T00:07:18;9.50;64.00
50738;DHT22;36703;48.154;17.126;2022-12-05T00:11:25;9.60;64.00
50738;DHT22;36703;48.154;17.126;2022-12-05T00:15:28;9.50;64.00
50738;DHT22;36703;48.154;17.126;2022-12-05T10:16:02;8.90;64.40
50738;DHT22;36703;48.154;17.126;2022-12-05T10:20:15;9.00;64.30
50738;DHT22;36703;48.154;17.126;2022-12-05T10:24:32;9.00;64.20
50738;DHT22;36703;48.154;17.126;2022-12-05T10:33:20;9.00;64.30
50738;DHT22;36703;48.154;17.126;2022-12-05T10:37:23;9.10;64.30
50738;DHT22;36703;48.154;17.126;2022-12-05T10:41:24;9.10;64.30
50738;DHT22;36703;48.154;17.126;2022-12-05T10:45:26;9.10;64.30
50738;DHT22;36703;48.154;17.126;2022-12-05T10:49:28;9.00;64.40
50738;DHT22;36703;48.154;17.126;2022-12-05T10:53:39;9.00;64.50
50738;DHT22;36703;48.154;17.126;2022-12-05T10:58:07;9.10;64.60
50738;DHT22;36703;48.154;17.126;2022-12-05T11:02:26;9.00;64.40
50738;DHT22;36703;48.154;17.126;2022-12-05T11:06:31;9.00;64.60
50738;DHT22;36703;48.154;17.126;2022-12-05T11:10:34;8.90;64.70
50738;DHT22;36703;48.154;17.126;2022-12-05T11:14:38;8.90;64.80
50738;DHT22;36703;48.154;17.126;2022-12-05T11:18:39;8.90;64.90
50738;DHT22;36703;48.154;17.126;2022-12-05T11:22:43;8.90;64.90
50738;DHT22;36703;48.154;17.126;2022-12-05T11:26:45;9.00;64.90
50738;DHT22;36703;48.154;17.126;2022-12-05T11:39:13;9.00;65.10
50738;DHT22;36703;48.154;17.126;2022-12-05T11:52:03;9.20;64.80
50738;DHT22;36703;48.154;17.126;2022-12-05T11:56:43;9.20;64.70
50738;DHT22;36703;48.154;17.126;2022-12-05T12:09:50;9.00;65.30
50738;DHT22;36703;48.154;17.126;2022-12-05T12:14:11;9.00;65.40
50738;DHT22;36703;48.154;17.126;2022-12-05T12:27:45;9.00;65.70
50738;DHT22;36703;48.154;17.126;2022-12-05T12:36:40;9.10;65.80
50738;DHT22;36703;48.154;17.126;2022-12-05T12:40:53;9.10;65.80
50738;DHT22;36703;48.154;17.126;2022-12-05T12:49:58;9.10;65.70
50738;DHT22;36703;48.154;17.126;2022-12-05T12:54:20;9.10;65.90
50738;DHT22;36703;48.154;17.126;2022-12-05T12:58:46;9.10;65.90
50738;DHT22;36703;48.154;17.126;2022-12-05T13:03:07;9.20;66.10
50738;DHT22;36703;48.154;17.126;2022-12-05T13:07:13;9.20;66.10
50738;DHT22;36703;48.154;17.126;2022-12-05T13:11:19;9.30;66.10
50738;DHT22;36703;48.154;17.126;2022-12-05T13:15:40;9.30;66.00
50738;DHT22;36703;48.154;17.126;2022-12-05T13:19:50;9.30;66.00
50738;DHT22;36703;48.154;17.126;2022-12-05T13:23:54;9.40;65.90
50738;DHT22;36703;48.154;17.126;2022-12-05T13:28:02;9.40;66.00
50738;DHT22;36703;48.154;17.126;2022-12-05T13:32:05;9.40;66.00
50738;DHT22;36703;48.154;17.126;2022-12-05T13:36:29;9.40;66.00
50738;DHT22;36703;48.154;17.126;2022-12-05T13:40:57;9.40;66.00
50738;DHT22;36703;48.154;17.126;2022-12-05T13:45:19;9.50;66.20
50738;DHT22;36703;48.154;17.126;2022-12-05T13:50:09;9.50;66.10
50738;DHT22;36703;48.154;17.126;2022-12-05T13:54:22;9.50;66.00
50738;DHT22;36703;48.154;17.126;2022-12-05T14:02:54;9.60;66.10
50738;DHT22;36703;48.154;17.126;2022-12-05T14:06:57;9.60;66.00
50738;DHT22;36703;48.154;17.126;2022-12-05T14:15:01;9.70;66.20
50738;DHT22;36703;48.154;17.126;2022-12-05T14:20:20;9.70;66.10
50738;DHT22;36703;48.154;17.126;2022-12-05T14:32:39;9.80;66.00
50738;DHT22;36703;48.154;17.126;2022-12-05T14:36:54;9.90;66.00
50738;DHT22;36703;48.154;17.126;2022-12-05T14:41:32;9.90;65.90
50738;DHT22;36703;48.154;17.126;2022-12-05T14:45:41;9.90;66.10
50738;DHT22;36703;48.154;17.126;2022-12-05T14:50:23;9.90;66.20
50738;DHT22;36703;48.154;17.126;2022-12-05T14:54:33;9.90;65.90
50738;DHT22;36703;48.154;17.126;2022-12-05T14:58:58;10.00;65.90
50738;DHT22;36703;48.154;17.126;2022-12-05T15:03:23;10.00;65.90
50738;DHT22;36703;48.154;17.126;2022-12-05T15:07:36;9.90;66.10
50738;DHT22;36703;48.154;17.126;2022-12-05T15:11:38;10.00;66.00
50738;DHT22;36703;48.154;17.126;2022-12-05T15:15:45;10.00;66.00
50738;DHT22;36703;48.154;17.126;2022-12-05T15:21:17;10.00;65.90
50738;DHT22;36703;48.154;17.126;2022-12-05T15:24:49;10.00;65.80
50738;DHT22;36703;48.154;17.126;2022-12-05T15:29:03;10.10;66.10
50738;DHT22;36703;48.154;17.126;2022-12-05T15:33:12;10.10;65.80
50738;DHT22;36703;48.154;17.126;2022-12-05T15:41:40;10.20;65.70
50738;DHT22;36703;48.154;17.126;2022-12-05T15:45:41;10.20;65.70
50738;DHT22;36703;48.154;17.126;2022-12-05T15:49:44;10.20;65.60
50738;DHT22;36703;48.154;17.126;2022-12-05T15:54:07;10.20;65.60
50738;DHT22;36703;48.154;17.126;2022-12-05T15:58:31;10.30;65.50
50738;DHT22;36703;48.154;17.126;2022-12-05T16:02:45;10.30;65.50
50738;DHT22;36703;48.154;17.126;2022-12-05T16:06:58;10.30;65.40
50738;DHT22;36703;48.154;17.126;2022-12-05T16:11:12;10.30;65.30
50738;DHT22;36703;48.154;17.126;2022-12-05T16:15:24;10.30;65.30
50738;DHT22;36703;48.154;17.126;2022-12-05T16:19:28;10.30;65.20
50738;DHT22;36703;48.154;17.126;2022-12-05T16:23:34;10.40;65.20
50738;DHT22;36703;48.154;17.126;2022-12-05T16:27:37;10.30;64.90
50738;DHT22;36703;48.154;17.126;2022-12-05T16:31:40;10.20;65.10
50738;DHT22;36703;48.154;17.126;2022-12-05T16:35:44;10.20;65.30
50738;DHT22;36703;48.154;17.126;2022-12-05T16:39:46;10.10;65.30
50738;DHT22;36703;48.154;17.126;2022-12-05T16:43:47;10.00;65.30
50738;DHT22;36703;48.154;17.126;2022-12-05T16:47:55;9.90;65.40
50738;DHT22;36703;48.154;17.126;2022-12-05T16:52:07;9.90;65.80
50738;DHT22;36703;48.154;17.126;2022-12-05T16:56:31;9.80;65.50
50738;DHT22;36703;48.154;17.126;2022-12-05T17:00:33;9.80;65.80
50738;DHT22;36703;48.154;17.126;2022-12-05T17:04:35;9.80;65.80
50738;DHT22;36703;48.154;17.126;2022-12-05T17:08:37;9.80;65.80
50738;DHT22;36703;48.154;17.126;2022-12-05T17:12:38;9.90;65.90
50738;DHT22;36703;48.154;17.126;2022-12-05T17:16:41;10.00;65.80
50738;DHT22;36703;48.154;17.126;2022-12-05T17:20:46;10.00;65.60
50738;DHT22;36703;48.154;17.126;2022-12-05T17:24:51;10.10;65.50
50738;DHT22;36703;48.154;17.126;2022-12-05T17:28:52;10.10;65.50
50738;DHT22;36703;48.154;17.126;2022-12-05T17:32:54;10.10;65.40
50738;DHT22;36703;48.154;17.126;2022-12-05T17:36:55;10.20;65.30
50738;DHT22;36703;48.154;17.126;2022-12-05T17:40:57;10.20;65.20
50738;DHT22;36703;48.154;17.126;2022-12-05T17:44:58;10.20;65.20
50738;DHT22;36703;48.154;17.126;2022-12-05T17:49:00;10.30;65.20
50738;DHT22;36703;48.154;17.126;2022-12-05T17:53:02;10.30;65.10
50738;DHT22;36703;48.154;17.126;2022-12-05T17:57:03;10.30;64.90
50738;DHT22;36703;48.154;17.126;2022-12-05T18:01:05;10.30;64.90
50738;DHT22;36703;48.154;17.126;2022-12-05T18:05:07;10.30;64.90
50738;DHT22;36703;48.154;17.126;2022-12-05T18:09:10;10.30;64.90
50738;DHT22;36703;48.154;17.126;2022-12-05T18:13:12;10.30;64.90
50738;DHT22;36703;48.154;17.126;2022-12-05T18:17:17;10.30;64.80
50738;DHT22;36703;48.154;17.126;2022-12-05T18:21:18;10.90;65.30
50738;DHT22;36703;48.154;17.126;2022-12-05T18:25:20;10.30;64.80
50738;DHT22;36703;48.154;17.126;2022-12-05T18:29:22;10.30;64.70
50738;DHT22;36703;48.154;17.126;2022-12-05T18:33:24;10.30;64.80
50738;DHT22;36703;48.154;17.126;2022-12-05T18:37:26;10.30;64.80
50738;DHT22;36703;48.154;17.126;2022-12-05T18:41:28;10.40;64.70
50738;DHT22;36703;48.154;17.126;2022-12-05T18:45:30;10.40;64.70
50738;DHT22;36703;48.154;17.126;2022-12-05T18:49:31;10.40;64.70
50738;DHT22;36703;48.154;17.126;2022-12-05T18:53:33;10.40;64.70
50738;DHT22;36703;48.154;17.126;2022-12-05T18:57:35;10.30;64.60
50738;DHT22;36703;48.154;17.126;2022-12-05T19:01:37;10.40;64.60
50738;DHT22;36703;48.154;17.126;2022-12-05T19:05:41;10.30;64.60
50738;DHT22;36703;48.154;17.126;2022-12-05T19:09:43;10.30;64.70
50738;DHT22;36703;48.154;17.126;2022-12-05T19:13:45;10.30;64.60
50738;DHT22;36703;48.154;17.126;2022-12-05T19:17:47;10.30;64.60
50738;DHT22;36703;48.154;17.126;2022-12-05T19:21:49;10.30;64.80
50738;DHT22;36703;48.154;17.126;2022-12-05T19:26:09;10.30;64.80
50738;DHT22;36703;48.154;17.126;2022-12-05T19:30:11;10.30;64.80
50738;DHT22;36703;48.154;17.126;2022-12-05T19:34:13;10.30;64.50
50738;DHT22;36703;48.154;17.126;2022-12-05T19:38:14;10.30;64.60
50738;DHT22;36703;48.154;17.126;2022-12-05T19:42:16;10.30;64.60
50738;DHT22;36703;48.154;17.126;2022-12-05T19:46:23;10.30;64.70
50738;DHT22;36703;48.154;17.126;2022-12-05T19:50:26;10.40;64.60
50738;DHT22;36703;48.154;17.126;2022-12-05T19:54:28;10.40;64.60
50738;DHT22;36703;48.154;17.126;2022-12-05T19:58:31;10.50;64.50
50738;DHT22;36703;48.154;17.126;2022-12-05T20:02:33;10.50;64.40
50738;DHT22;36703;48.154;17.126;2022-12-05T20:06:46;10.50;64.40
50738;DHT22;36703;48.154;17.126;2022-12-05T20:10:48;10.50;64.40
50738;DHT22;36703;48.154;17.126;2022-12-05T20:14:52;10.50;64.40
50738;DHT22;36703;48.154;17.126;2022-12-05T20:18:56;10.50;64.40
50738;DHT22;36703;48.154;17.126;2022-12-05T20:22:59;10.50;64.30
50738;DHT22;36703;48.154;17.126;2022-12-05T20:27:00;10.50;64.30
50738;DHT22;36703;48.154;17.126;2022-12-05T20:31:23;10.60;64.40
50738;DHT22;36703;48.154;17.126;2022-12-05T20:35:26;10.60;64.30
50738;DHT22;36703;48.154;17.126;2022-12-05T20:39:28;10.60;64.30
50738;DHT22;36703;48.154;17.126;2022-12-05T20:43:30;10.60;64.30
50738;DHT22;36703;48.154;17.126;2022-12-05T20:47:32;10.50;64.20
50738;DHT22;36703;48.154;17.126;2022-12-05T20:51:33;10.60;64.20
50738;DHT22;36703;48.154;17.126;2022-12-05T20:55:36;10.60;64.20
50738;DHT22;36703;48.154;17.126;2022-12-05T20:59:37;10.60;64.10
50738;DHT22;36703;48.154;17.126;2022-12-05T21:03:44;10.70;64.10
50738;DHT22;36703;48.154;17.126;2022-12-05T21:07:47;10.60;64.00
50738;DHT22;36703;48.154;17.126;2022-12-05T21:11:49;10.60;63.90
50738;DHT22;36703;48.154;17.126;2022-12-05T21:15:51;10.60;64.00
50738;DHT22;36703;48.154;17.126;2022-12-05T21:19:52;10.60;64.00
50738;DHT22;36703;48.154;17.126;2022-12-05T21:23:57;10.60;64.00
50738;DHT22;36703;48.154;17.126;2022-12-05T21:28:00;10.60;64.00
50738;DHT22;36703;48.154;17.126;2022-12-05T21:32:02;10.60;64.10
50738;DHT22;36703;48.154;17.126;2022-12-05T21:36:04;10.50;64.20
50738;DHT22;36703;48.154;17.126;2022-12-05T21:40:08;10.50;64.20
50738;DHT22;36703;48.154;17.126;2022-12-05T21:44:09;10.50;64.40
50738;DHT22;36703;48.154;17.126;2022-12-05T21:48:11;10.50;64.40
50738;DHT22;36703;48.154;17.126;2022-12-05T21:52:13;10.40;64.30
50738;DHT22;36703;48.154;17.126;2022-12-05T21:56:16;10.40;64.40
50738;DHT22;36703;48.154;17.126;2022-12-05T22:00:18;10.40;64.40
50738;DHT22;36703;48.154;17.126;2022-12-05T22:04:20;10.40;64.50
50738;DHT22;36703;48.154;17.126;2022-12-05T22:08:22;10.40;64.60
50738;DHT22;36703;48.154;17.126;2022-12-05T22:12:24;10.40;64.50
50738;DHT22;36703;48.154;17.126;2022-12-05T22:18:24;10.40;64.60
50738;DHT22;36703;48.154;17.126;2022-12-05T22:22:25;10.30;64.50
50738;DHT22;36703;48.154;17.126;2022-12-05T22:26:27;10.40;64.60
50738;DHT22;36703;48.154;17.126;2022-12-05T22:30:29;10.30;64.60
50738;DHT22;36703;48.154;17.126;2022-12-05T22:34:30;10.30;64.70
50738;DHT22;36703;48.154;17.126;2022-12-05T22:38:35;10.30;64.70
50738;DHT22;36703;48.154;17.126;2022-12-05T22:42:38;10.40;65.50
50738;DHT22;36703;48.154;17.126;2022-12-05T22:46:40;10.40;64.80
50738;DHT22;36703;48.154;17.126;2022-12-05T22:50:46;10.40;64.80
50738;DHT22;36703;48.154;17.126;2022-12-05T22:54:48;10.40;64.70
50738;DHT22;36703;48.154;17.126;2022-12-05T22:58:56;10.30;64.80
50738;DHT22;36703;48.154;17.126;2022-12-05T23:03:01;10.40;65.00
50738;DHT22;36703;48.154;17.126;2022-12-05T23:07:02;10.30;65.00
50738;DHT22;36703;48.154;17.126;2022-12-05T23:11:05;10.40;65.10
50738;DHT22;36703;48.154;17.126;2022-12-05T23:15:07;10.40;65.10
50738;DHT22;36703;48.154;17.126;2022-12-05T23:19:09;10.40;65.10
50738;DHT22;36703;48.154;17.126;2022-12-05T23:23:11;10.40;65.00
50738;DHT22;36703;48.154;17.126;2022-12-05T23:27:13;10.40;65.00
50738;DHT22;36703;48.154;17.126;2022-12-05T23:31:19;10.30;65.00
50738;DHT22;36703;48.154;17.126;2022-12-05T23:35:22;10.30;65.30
50738;DHT22;36703;48.154;17.126;2022-12-05T23:39:24;10.30;65.50
50738;DHT22;36703;48.154;17.126;2022-12-05T23:43:26;10.30;65.30
50738;DHT22;36703;48.154;17.126;2022-12-05T23:47:28;10.30;65.20
50738;DHT22;36703;48.154;17.126;2022-12-05T23:51:30;10.30;65.40
50738;DHT22;36703;48.154;17.126;2022-12-05T23:55:33;10.20;65.20
50738;DHT22;36703;48.154;17.126;2022-12-05T23:59:35;10.20;65.30
